createdAt,value
2019-05-12T00:01:33.971Z,80.15
2019-05-12T00:04:05.146Z,80.31
2019-05-12T00:06:38.580Z,81.02
2019-05-12T00:09:09.229Z,80.69
2019-05-12T00:11:40.624Z,80.21
2019-05-12T00:14:11.612Z,80.27
2019-05-12T00:16:43.678Z,80.15
2019-05-12T00:19:14.665Z,80.25
2019-05-12T00:21:48.138Z,80.98
2019-05-12T00:24:18.823Z,82.74
2019-05-12T00:26:51.898Z,82.47
2019-05-12T00:29:22.989Z,83.26
2019-05-12T00:31:54.068Z,84.95
2019-05-12T00:34:25.122Z,84.51
2019-05-12T00:36:57.713Z,84.26
2019-05-12T00:39:28.912Z,83.62
2019-05-12T00:41:59.993Z,85.00
2019-05-12T00:44:31.294Z,84.99
2019-05-12T00:47:02.475Z,85.68
2019-05-12T00:49:33.509Z,85.00
2019-05-12T00:52:04.660Z,85.88
2019-05-12T00:54:37.555Z,85.73
2019-05-12T00:57:08.480Z,86.05
2019-05-12T00:59:39.565Z,85.64
2019-05-12T01:02:10.568Z,85.29
2019-05-12T01:04:41.579Z,86.30
2019-05-12T01:07:12.899Z,85.78
2019-05-12T01:09:43.935Z,85.77
2019-05-12T01:12:14.998Z,86.36
2019-05-12T01:14:47.782Z,86.75
2019-05-12T01:17:18.813Z,86.41
2019-05-12T01:19:49.876Z,85.87
2019-05-12T01:22:21.029Z,86.47
2019-05-12T01:24:52.075Z,85.40
2019-05-12T01:27:23.110Z,86.46
2019-05-12T01:29:54.105Z,85.81
2019-05-12T01:32:33.069Z,86.10
2019-05-12T01:35:04.490Z,86.13
2019-05-12T01:37:38.107Z,86.97
2019-05-12T01:40:10.763Z,86.73
2019-05-12T01:42:41.949Z,85.73
2019-05-12T01:45:14.464Z,86.29
2019-05-12T01:47:48.546Z,86.57
2019-05-12T01:50:19.524Z,87.25
2019-05-12T01:52:50.654Z,86.29
2019-05-12T01:55:21.637Z,86.50
2019-05-12T01:57:52.677Z,85.86
2019-05-12T02:00:24.740Z,85.42
2019-05-12T02:02:58.138Z,86.52
2019-05-12T02:05:28.669Z,86.52
2019-05-12T02:08:01.150Z,88.25
2019-05-12T02:10:32.575Z,87.43
2019-05-12T02:13:03.545Z,87.91
2019-05-12T02:15:34.563Z,87.59
2019-05-12T02:18:05.598Z,87.66
2019-05-12T02:20:38.132Z,87.01
2019-05-12T02:23:09.497Z,86.63
2019-05-12T02:25:40.443Z,87.08
2019-05-12T02:28:11.439Z,86.67
2019-05-12T02:30:42.479Z,88.24
2019-05-12T02:33:15.902Z,88.71
2019-05-12T02:35:46.150Z,88.94
2019-05-12T02:38:17.110Z,88.70
2019-05-12T02:40:48.144Z,87.48
2019-05-12T02:43:19.098Z,89.06
2019-05-12T02:45:50.066Z,89.50
2019-05-12T02:48:24.369Z,89.07
2019-05-12T02:50:54.621Z,89.15
2019-05-12T02:53:25.630Z,88.79
2019-05-12T02:55:57.629Z,88.45
2019-05-12T02:58:29.974Z,88.30
2019-05-12T03:01:05.418Z,88.98
2019-05-12T03:03:37.889Z,89.51
2019-05-12T03:06:09.029Z,89.67
2019-05-12T03:08:40.185Z,89.38
2019-05-12T03:11:11.123Z,89.33
2019-05-12T03:16:53.980Z,90.24
2019-05-12T03:19:25.379Z,89.86
2019-05-12T03:21:56.621Z,89.32
2019-05-12T03:24:27.577Z,89.56
2019-05-12T03:26:58.557Z,89.13
2019-05-12T03:29:29.557Z,89.76
2019-05-12T03:32:00.575Z,89.07
2019-05-12T03:34:37.549Z,89.41
2019-05-12T03:37:07.770Z,89.93
2019-05-12T03:39:37.444Z,90.46
2019-05-12T03:42:08.518Z,90.57
2019-05-12T03:44:39.483Z,90.23
2019-05-12T03:47:10.660Z,90.46
2019-05-12T03:49:41.605Z,90.23
2019-05-12T03:52:15.241Z,89.46
2019-05-12T03:54:45.297Z,89.23
2019-05-12T03:57:16.392Z,89.24
2019-05-12T03:59:47.353Z,89.27
2019-05-12T04:02:19.403Z,90.13
2019-05-12T04:04:50.470Z,90.21
2019-05-12T04:07:24.253Z,90.14
2019-05-12T04:09:54.926Z,89.26
2019-05-12T04:12:26.176Z,89.43
2019-05-12T04:14:57.201Z,89.78
2019-05-12T04:17:28.294Z,88.37
2019-05-12T04:19:59.296Z,89.47
2019-05-12T04:22:30.277Z,89.53
2019-05-12T04:25:01.304Z,89.81
2019-05-12T04:27:34.867Z,90.42
2019-05-12T04:30:05.705Z,89.18
2019-05-12T04:32:36.738Z,89.57
2019-05-12T04:35:07.907Z,89.66
2019-05-12T04:37:38.888Z,89.56
2019-05-12T04:40:10.180Z,89.61
2019-05-12T04:42:44.884Z,89.40
2019-05-12T04:45:15.697Z,89.24
2019-05-12T04:47:47.205Z,90.00
2019-05-12T04:50:18.613Z,88.64
2019-05-12T04:52:49.584Z,88.26
2019-05-12T04:55:20.546Z,89.50
2019-05-12T04:57:54.013Z,89.41
2019-05-12T05:00:25.765Z,90.36
2019-05-12T05:02:57.149Z,89.53
2019-05-12T05:05:28.124Z,89.71
2019-05-12T05:07:59.145Z,88.57
2019-05-12T05:10:30.134Z,89.68
2019-05-12T05:13:01.162Z,90.04
2019-05-12T05:15:34.885Z,89.76
2019-05-12T05:18:06.811Z,89.69
2019-05-12T05:20:37.671Z,89.12
2019-05-12T05:23:08.619Z,89.19
2019-05-12T05:25:39.630Z,89.56
2019-05-12T05:28:10.605Z,89.79
2019-05-12T05:30:43.668Z,89.35
2019-05-12T05:33:14.735Z,89.59
2019-05-12T05:35:45.919Z,89.60
2019-05-12T05:38:20.563Z,89.26
2019-05-12T05:40:49.573Z,88.98
2019-05-12T05:43:20.561Z,87.91
2019-05-12T05:45:56.168Z,89.00
2019-05-12T05:48:24.261Z,89.46
2019-05-12T05:50:55.214Z,90.61
2019-05-12T05:53:26.326Z,90.33
2019-05-12T05:56:00.189Z,89.88
2019-05-12T05:58:29.983Z,89.76
2019-05-12T06:01:03.828Z,90.49
2019-05-12T06:03:33.967Z,90.76
2019-05-12T06:06:10.915Z,89.87
2019-05-12T06:08:37.782Z,89.87
2019-05-12T06:11:13.525Z,89.14
2019-05-12T06:13:41.506Z,89.05
2019-05-12T06:16:20.722Z,89.41
2019-05-12T06:18:46.910Z,89.23
2019-05-12T06:21:17.903Z,88.99
2019-05-12T06:23:48.846Z,88.82
2019-05-12T06:26:21.177Z,89.05
2019-05-12T06:28:55.916Z,89.31
2019-05-12T06:31:29.771Z,89.32
2019-05-12T06:33:58.007Z,89.38
2019-05-12T06:36:29.042Z,89.39
2019-05-12T06:38:59.993Z,90.26
2019-05-12T06:41:33.094Z,89.65
2019-05-12T06:44:03.885Z,89.35
2019-05-12T06:46:34.968Z,90.61
2019-05-12T06:49:12.776Z,90.31
2019-05-12T06:51:38.682Z,90.16
2019-05-12T06:54:11.968Z,90.39
2019-05-12T06:56:43.558Z,89.73
2019-05-12T06:59:14.943Z,90.66
2019-05-12T07:01:49.777Z,89.98
2019-05-12T07:04:21.260Z,89.78
2019-05-12T07:06:56.370Z,90.18
2019-05-12T07:09:28.094Z,89.62
2019-05-12T07:12:03.002Z,89.16
2019-05-12T07:14:29.726Z,88.21
2019-05-12T07:17:06.363Z,89.72
2019-05-12T07:19:37.485Z,89.03
2019-05-12T07:22:19.944Z,88.16
2019-05-12T07:24:50.135Z,89.02
2019-05-12T07:27:14.178Z,89.23
2019-05-12T07:29:45.365Z,88.95
2019-05-12T07:32:21.684Z,88.12
2019-05-12T07:34:49.346Z,88.89
2019-05-12T07:37:23.590Z,88.52
2019-05-12T07:39:55.410Z,88.90
2019-05-12T07:42:31.455Z,89.76
2019-05-12T07:45:05.579Z,88.69
2019-05-12T07:47:36.638Z,88.53
2019-05-12T07:50:09.752Z,89.76
2019-05-12T07:52:40.615Z,88.83
2019-05-12T07:55:11.731Z,89.27
2019-05-12T07:57:52.810Z,88.33
2019-05-12T08:00:21.068Z,88.10
2019-05-12T08:02:49.048Z,88.72
2019-05-12T08:05:21.369Z,89.21
2019-05-12T08:07:53.689Z,88.82
2019-05-12T08:10:24.649Z,89.24
2019-05-12T08:12:59.309Z,88.31
2019-05-12T08:15:28.304Z,88.72
2019-05-12T08:17:59.714Z,89.41
2019-05-12T08:20:30.821Z,88.80
2019-05-12T08:23:05.834Z,88.56
2019-05-12T08:25:35.233Z,88.30
2019-05-12T08:28:14.987Z,88.77
2019-05-12T08:30:45.755Z,88.37
2019-05-12T08:33:14.339Z,87.64
2019-05-12T08:35:44.768Z,88.91
2019-05-12T08:38:15.920Z,88.52
2019-05-12T08:40:50.957Z,88.27
2019-05-12T08:43:19.641Z,88.16
2019-05-12T08:45:50.597Z,87.17
2019-05-12T08:48:24.797Z,86.98
2019-05-12T08:50:54.775Z,87.43
2019-05-12T08:53:26.380Z,87.51
2019-05-12T08:55:57.455Z,86.42
2019-05-12T08:58:33.604Z,85.59
2019-05-12T09:01:04.451Z,87.09
2019-05-12T09:03:35.007Z,87.46
2019-05-12T09:06:09.391Z,88.66
2019-05-12T09:08:45.243Z,88.21
2019-05-12T09:11:13.765Z,87.42
2019-05-12T09:13:44.433Z,87.91
2019-05-12T09:16:15.480Z,87.50
2019-05-12T09:18:46.453Z,88.06
2019-05-12T09:21:17.487Z,87.83
2019-05-12T09:23:48.459Z,87.86
2019-05-12T09:26:26.738Z,87.64
2019-05-12T09:28:54.172Z,86.72
2019-05-12T09:31:29.298Z,87.78
2019-05-12T09:33:57.910Z,88.36
2019-05-12T09:36:29.405Z,88.20
2019-05-12T09:39:03.004Z,88.06
2019-05-12T09:41:41.734Z,88.05
2019-05-12T09:44:06.173Z,86.42
2019-05-12T09:46:37.721Z,87.69
2019-05-12T09:49:08.918Z,87.13
2019-05-12T09:51:42.685Z,87.37
2019-05-12T09:54:13.939Z,87.15
2019-05-12T09:56:49.951Z,86.51
2019-05-12T09:59:22.854Z,86.11
2019-05-12T10:01:50.555Z,86.46
2019-05-12T10:04:21.689Z,87.20
2019-05-12T10:06:53.513Z,88.22
2019-05-12T10:09:24.610Z,87.54
2019-05-12T10:12:00.466Z,87.25
2019-05-12T10:14:28.252Z,85.61
2019-05-12T10:16:59.222Z,86.44
2019-05-12T10:19:30.190Z,86.37
2019-05-12T10:22:01.147Z,87.29
2019-05-12T10:24:40.597Z,87.12
2019-05-12T10:27:04.921Z,87.22
2019-05-12T10:29:35.910Z,86.31
2019-05-12T10:32:10.286Z,87.29
2019-05-12T10:34:40.426Z,86.92
2019-05-12T10:37:13.352Z,88.19
2019-05-12T10:39:44.192Z,89.14
2019-05-12T10:42:15.153Z,87.97
2019-05-12T10:44:46.162Z,88.45
2019-05-12T10:47:17.143Z,88.45
2019-05-12T10:49:48.199Z,87.28
2019-05-12T10:52:19.180Z,87.72
2019-05-12T10:54:50.153Z,86.71
2019-05-12T10:57:21.221Z,86.34
2019-05-12T10:59:53.356Z,84.62
2019-05-12T11:02:26.442Z,86.06
2019-05-12T11:04:57.254Z,87.37
2019-05-12T11:07:29.961Z,86.56
2019-05-12T11:10:05.614Z,85.64
2019-05-12T11:12:33.802Z,85.94
2019-05-12T11:15:06.699Z,85.17
2019-05-12T11:17:55.209Z,85.81
2019-05-12T11:20:26.188Z,85.68
2019-05-12T11:22:57.179Z,86.41
2019-05-12T11:25:28.834Z,85.94
2019-05-12T11:27:59.865Z,85.80
2019-05-12T11:30:31.039Z,84.99
2019-05-12T11:33:04.056Z,84.50
2019-05-12T11:35:35.411Z,85.98
2019-05-12T11:38:07.484Z,85.03
2019-05-12T11:40:38.467Z,84.98
2019-05-12T11:43:09.510Z,85.61
2019-05-12T11:45:40.597Z,84.57
2019-05-12T11:48:11.634Z,86.71
2019-05-12T11:50:47.779Z,86.94
2019-05-12T11:53:15.434Z,85.84
2019-05-12T11:55:46.432Z,85.31
2019-05-12T11:58:17.395Z,86.16
2019-05-12T12:00:50.703Z,86.19
2019-05-12T12:03:23.378Z,84.81
2019-05-12T12:05:54.614Z,84.32
2019-05-12T12:08:33.769Z,85.33
2019-05-12T12:10:58.299Z,86.31
2019-05-12T12:13:30.133Z,85.49
2019-05-12T12:16:07.101Z,86.24
2019-05-12T12:18:34.035Z,86.67
2019-05-12T12:21:07.601Z,85.25
2019-05-12T12:23:40.883Z,85.20
2019-05-12T12:26:28.261Z,86.46
2019-05-12T12:28:56.460Z,88.59
2019-05-12T12:31:29.763Z,86.67
2019-05-12T12:34:01.745Z,87.45
2019-05-12T12:36:34.159Z,86.32
2019-05-12T12:39:07.101Z,87.09
2019-05-12T12:41:45.783Z,87.11
2019-05-12T12:44:10.807Z,87.78
2019-05-12T12:46:43.959Z,86.28
2019-05-12T12:49:14.551Z,87.05
2019-05-12T12:51:45.823Z,87.27
2019-05-12T12:54:16.910Z,87.65
2019-05-12T12:56:48.958Z,87.47
2019-05-12T12:59:19.940Z,87.64
2019-05-12T13:01:50.997Z,86.81
2019-05-12T13:04:22.038Z,87.48
2019-05-12T13:06:54.323Z,86.45
2019-05-12T13:09:25.404Z,87.69
2019-05-12T13:11:56.389Z,87.46
2019-05-12T13:14:28.529Z,88.12
2019-05-12T13:17:00.163Z,88.09
2019-05-12T13:19:33.135Z,87.97
2019-05-12T13:22:03.899Z,87.93
2019-05-12T13:24:34.910Z,87.00
2019-05-12T13:27:06.092Z,87.71
2019-05-12T13:29:39.707Z,87.33
2019-05-12T13:32:10.786Z,87.75
2019-05-12T13:34:43.007Z,87.77
2019-05-12T13:37:15.544Z,87.69
2019-05-12T13:39:55.225Z,86.77
2019-05-12T13:42:19.606Z,87.31
2019-05-12T13:44:50.592Z,88.80
2019-05-12T13:47:21.572Z,87.87
2019-05-12T13:49:54.426Z,88.88
2019-05-12T13:52:30.016Z,88.00
2019-05-12T13:55:00.066Z,87.90
2019-05-12T13:57:30.755Z,88.48
2019-05-12T14:00:06.755Z,87.93
2019-05-12T14:02:34.692Z,87.99
2019-05-12T14:05:11.528Z,87.87
2019-05-12T14:07:40.053Z,86.90
2019-05-12T14:10:14.003Z,88.54
2019-05-12T14:12:46.146Z,87.09
2019-05-12T14:15:17.313Z,87.00
2019-05-12T14:17:48.433Z,89.52
2019-05-12T14:20:20.409Z,86.81
2019-05-12T14:22:53.777Z,86.77
2019-05-12T14:25:29.874Z,87.22
2019-05-12T14:27:59.421Z,87.98
2019-05-12T14:30:29.969Z,87.73
2019-05-12T14:33:00.976Z,85.67
2019-05-12T14:35:40.446Z,85.18
2019-05-12T14:38:04.715Z,86.11
2019-05-12T14:40:35.781Z,86.18
2019-05-12T14:43:10.197Z,86.29
2019-05-12T14:45:39.568Z,84.72
2019-05-12T14:48:10.571Z,85.79
2019-05-12T14:50:43.993Z,85.27
2019-05-12T14:53:14.630Z,86.39
2019-05-12T14:55:45.931Z,86.26
2019-05-12T14:58:20.493Z,85.27
2019-05-12T15:00:50.843Z,85.41
2019-05-12T15:03:24.187Z,84.64
2019-05-12T15:05:55.623Z,85.31
2019-05-12T15:08:35.954Z,84.38
2019-05-12T15:10:59.591Z,84.94
2019-05-12T15:13:30.569Z,85.76
2019-05-12T15:16:01.590Z,85.11
2019-05-12T15:18:32.628Z,84.78
2019-05-12T15:21:03.712Z,84.50
2019-05-12T15:23:37.481Z,85.00
2019-05-12T15:26:09.555Z,83.29
2019-05-12T15:28:43.310Z,84.67
2019-05-12T15:31:14.483Z,84.96
2019-05-12T15:33:45.849Z,87.33
2019-05-12T15:36:16.922Z,86.29
2019-05-12T15:38:49.257Z,84.71
2019-05-12T15:41:23.720Z,85.92
2019-05-12T15:43:55.884Z,85.32
2019-05-12T15:46:32.789Z,84.69
2019-05-12T15:49:00.053Z,84.34
2019-05-12T15:51:35.468Z,84.03
2019-05-12T15:54:11.320Z,82.69
2019-05-12T15:56:37.682Z,82.84
2019-05-12T15:59:08.630Z,82.92
2019-05-12T16:01:39.764Z,82.51
2019-05-12T16:04:11.995Z,82.50
2019-05-12T16:06:52.996Z,82.38
2019-05-12T16:09:16.128Z,83.06
2019-05-12T16:11:48.507Z,83.01
2019-05-12T16:14:19.488Z,83.62
2019-05-12T16:16:50.472Z,83.89
2019-05-12T16:19:23.447Z,83.16
2019-05-12T16:21:54.218Z,82.98
2019-05-12T16:24:27.338Z,81.74
2019-05-12T16:26:59.017Z,82.79
2019-05-12T16:29:29.990Z,82.45
2019-05-12T16:32:01.036Z,84.22
2019-05-12T16:34:36.129Z,84.35
2019-05-12T16:37:04.811Z,83.39
2019-05-12T16:39:43.838Z,82.97
2019-05-12T16:42:10.535Z,82.62
2019-05-12T16:44:43.829Z,83.72
2019-05-12T16:47:18.711Z,82.54
2019-05-12T16:49:46.989Z,82.85
2019-05-12T16:52:17.986Z,83.49
2019-05-12T16:54:49.021Z,82.92
2019-05-12T16:57:20.173Z,83.20
2019-05-12T16:59:55.957Z,82.59
2019-05-12T17:02:38.383Z,83.14
2019-05-12T17:04:56.802Z,82.70
2019-05-12T17:07:27.810Z,82.43
2019-05-12T17:10:02.971Z,82.87
2019-05-12T17:12:32.422Z,82.46
2019-05-12T17:15:04.617Z,83.40
2019-05-12T17:17:35.758Z,82.98
2019-05-12T17:20:08.008Z,84.97
2019-05-12T17:22:39.079Z,85.63
2019-05-12T17:25:10.697Z,85.81
2019-05-12T17:27:44.476Z,84.64
2019-05-12T17:30:23.902Z,83.96
2019-05-12T17:33:00.894Z,84.54
2019-05-12T17:35:31.611Z,83.40
2019-05-12T17:38:00.785Z,84.44
2019-05-12T17:40:33.859Z,84.23
2019-05-12T17:43:09.285Z,84.45
2019-05-12T17:45:37.656Z,86.22
2019-05-12T17:48:08.722Z,86.04
2019-05-12T17:50:40.579Z,83.76
2019-05-12T17:53:13.832Z,83.82
2019-05-12T17:55:50.827Z,84.01
2019-05-12T17:58:18.055Z,84.25
2019-05-12T18:00:51.876Z,85.08
2019-05-12T18:03:25.374Z,85.85
2019-05-12T18:05:54.674Z,84.71
2019-05-12T18:08:32.746Z,85.02
2019-05-12T18:10:58.748Z,84.50
2019-05-12T18:13:30.039Z,83.84
2019-05-12T18:16:03.552Z,87.71
2019-05-12T18:18:38.008Z,86.15
2019-05-12T18:21:06.586Z,84.66
2019-05-12T18:23:38.792Z,85.05
2019-05-12T18:26:14.365Z,85.79
2019-05-12T18:28:44.217Z,84.74
2019-05-12T18:31:15.578Z,84.31
2019-05-12T18:33:52.013Z,83.99
2019-05-12T18:36:19.293Z,83.49
2019-05-12T18:38:50.283Z,83.18
2019-05-12T18:41:21.272Z,83.33
2019-05-12T18:43:53.889Z,83.34
2019-05-12T18:46:25.223Z,84.46
2019-05-12T18:49:03.709Z,83.85
2019-05-12T18:51:29.025Z,84.33
2019-05-12T18:54:03.850Z,82.38
2019-05-12T18:56:33.622Z,82.62
2019-05-12T18:59:11.525Z,82.99
2019-05-12T19:01:38.108Z,82.07
2019-05-12T19:04:09.140Z,81.42
2019-05-12T19:06:40.106Z,82.61
2019-05-12T19:09:13.690Z,81.97
2019-05-12T19:11:46.668Z,82.11
2019-05-12T19:14:17.209Z,82.46
2019-05-12T19:16:48.241Z,82.07
2019-05-12T19:19:20.082Z,81.61
2019-05-12T19:21:58.509Z,80.78
2019-05-12T19:24:24.269Z,82.45
2019-05-12T19:26:55.273Z,82.00
2019-05-12T19:29:29.653Z,81.96
2019-05-12T19:31:59.034Z,81.50
2019-05-12T19:34:31.725Z,81.62
2019-05-12T19:37:03.265Z,82.72
2019-05-12T19:39:35.587Z,82.52
2019-05-12T19:42:10.624Z,82.17
2019-05-12T19:44:39.350Z,81.55
2019-05-12T19:47:10.409Z,82.33
2019-05-12T19:49:47.944Z,82.18
2019-05-12T19:52:14.601Z,82.28
2019-05-12T19:54:45.666Z,82.03
2019-05-12T19:57:22.193Z,82.11
2019-05-12T19:59:51.175Z,82.21
2019-05-12T20:02:23.729Z,82.11
2019-05-12T20:04:56.681Z,81.58
2019-05-12T20:07:27.665Z,81.77
2019-05-12T20:10:00.642Z,81.72
2019-05-12T20:12:31.556Z,81.72
2019-05-12T20:15:04.045Z,82.19
2019-05-12T20:17:36.298Z,81.55
2019-05-12T20:20:08.830Z,82.63
2019-05-12T20:22:39.803Z,81.99
2019-05-12T20:25:10.955Z,81.31
2019-05-12T20:27:44.347Z,81.18
2019-05-12T20:30:21.043Z,81.45
2019-05-12T20:32:50.428Z,81.83
2019-05-12T20:35:21.432Z,81.74
2019-05-12T20:37:54.592Z,81.21
2019-05-12T20:40:25.074Z,81.20
2019-05-12T20:43:07.807Z,81.40
2019-05-12T20:45:33.058Z,83.10
2019-05-12T20:48:03.879Z,84.50
2019-05-12T20:50:38.566Z,84.79
2019-05-12T20:53:06.955Z,83.88
2019-05-12T20:55:41.325Z,84.33
2019-05-12T20:58:10.653Z,84.06
2019-05-12T21:00:45.475Z,84.96
2019-05-12T21:03:14.278Z,84.38
2019-05-12T21:05:45.280Z,83.61
2019-05-12T21:08:16.310Z,83.64
2019-05-12T21:10:47.332Z,85.02
2019-05-12T21:13:20.507Z,83.79
2019-05-12T21:15:53.943Z,83.77
2019-05-12T21:18:25.333Z,83.21
2019-05-12T21:20:56.307Z,82.83
2019-05-12T21:23:27.324Z,83.61
2019-05-12T21:25:58.517Z,83.55
2019-05-12T21:28:29.697Z,82.63
2019-05-12T21:31:00.700Z,81.98
2019-05-12T21:33:40.029Z,82.52
2019-05-12T21:36:04.538Z,82.62
2019-05-12T21:38:35.518Z,82.67
2019-05-12T21:41:08.087Z,82.24
2019-05-12T21:43:39.425Z,82.16
2019-05-12T21:46:12.654Z,82.70
2019-05-12T21:48:43.058Z,81.98
2019-05-12T21:51:16.841Z,81.78
2019-05-12T21:53:50.561Z,83.76
2019-05-12T21:56:19.441Z,82.85
2019-05-12T21:58:53.816Z,86.23
2019-05-12T22:01:24.016Z,85.74
2019-05-12T22:04:01.936Z,83.82
2019-05-12T22:06:28.158Z,84.26
2019-05-12T22:09:03.007Z,82.96
2019-05-12T22:11:34.882Z,84.06
2019-05-12T22:14:06.288Z,82.94
2019-05-12T22:16:43.561Z,84.71
2019-05-12T22:19:11.865Z,85.66
2019-05-12T22:21:49.393Z,87.54
2019-05-12T22:24:15.583Z,87.14
2019-05-12T22:26:46.872Z,84.99
2019-05-12T22:29:21.168Z,85.17
2019-05-12T22:31:50.711Z,85.28
2019-05-12T22:34:27.650Z,84.57
2019-05-12T22:36:58.742Z,85.07
2019-05-12T22:39:27.232Z,84.19
2019-05-12T22:41:58.232Z,85.12
2019-05-12T22:44:29.283Z,85.52
2019-05-12T22:47:04.225Z,86.80
2019-05-12T22:49:33.847Z,85.10
2019-05-12T22:52:07.244Z,84.69
2019-05-12T22:54:40.575Z,86.83
2019-05-12T22:57:13.116Z,86.26
2019-05-12T22:59:44.890Z,86.95
2019-05-12T23:02:24.438Z,86.95
2019-05-12T23:04:48.740Z,85.36
2019-05-12T23:07:28.104Z,84.71
2019-05-12T23:09:53.763Z,85.93
2019-05-12T23:12:24.789Z,85.94
2019-05-12T23:15:02.878Z,85.04
2019-05-12T23:17:28.531Z,85.37
2019-05-12T23:19:59.655Z,84.96
2019-05-12T23:22:35.269Z,84.74
2019-05-12T23:25:03.951Z,84.31
2019-05-12T23:27:35.131Z,85.17
2019-05-12T23:30:10.847Z,84.34
2019-05-12T23:32:42.918Z,83.85
2019-05-12T23:35:14.442Z,84.80
2019-05-12T23:37:45.723Z,84.07
2019-05-12T23:40:16.837Z,84.50
2019-05-12T23:42:47.931Z,83.89
2019-05-12T23:45:18.920Z,85.86
2019-05-12T23:47:50.992Z,84.28
2019-05-12T23:50:23.968Z,84.71
2019-05-12T23:52:54.763Z,85.62
2019-05-12T23:55:25.850Z,84.56
2019-05-12T23:57:56.845Z,83.86
